createdAt,value
2023-02-15T00:01:55.374Z,28.10
2023-02-15T00:04:25.567Z,28.33
2023-02-15T00:06:53.239Z,28.90
2023-02-15T00:09:20.918Z,28.50
2023-02-15T00:11:51.868Z,28.63
2023-02-15T00:14:21.124Z,27.67
2023-02-15T00:16:50.178Z,28.33
2023-02-15T00:19:21.395Z,27.93
2023-02-15T00:21:50.563Z,27.27
2023-02-15T00:24:20.231Z,27.23
2023-02-15T00:26:49.266Z,27.17
2023-02-15T00:29:19.814Z,26.30
2023-02-15T00:31:49.118Z,26.57
2023-02-15T00:34:21.060Z,27.77
2023-02-15T00:36:48.957Z,29.53
2023-02-15T00:39:18.165Z,27.60
2023-02-15T00:41:46.528Z,27.10
2023-02-15T00:44:15.399Z,28.93
2023-02-15T00:46:44.021Z,28.23
2023-02-15T00:49:12.925Z,28.07
2023-02-15T00:51:42.051Z,27.83
2023-02-15T00:54:09.836Z,28.77
2023-02-15T00:56:37.677Z,28.13
2023-02-15T00:59:05.476Z,28.63
2023-02-15T01:01:34.388Z,27.97
2023-02-15T01:04:02.169Z,28.90
2023-02-15T01:06:31.069Z,27.83
2023-02-15T01:09:00.340Z,27.83
2023-02-15T01:11:28.292Z,28.90
2023-02-15T01:13:57.456Z,29.87
2023-02-15T01:16:27.114Z,28.47
2023-02-15T01:18:55.923Z,28.17
2023-02-15T01:21:26.239Z,29.40
2023-02-15T01:23:54.300Z,30.37
2023-02-15T01:26:23.531Z,29.47
2023-02-15T01:28:51.201Z,31.20
2023-02-15T01:31:21.251Z,30.60
2023-02-15T01:33:50.044Z,29.17
2023-02-15T01:36:18.842Z,32.60
2023-02-15T01:38:46.987Z,30.33
2023-02-15T01:41:28.603Z,33.77
2023-02-15T01:43:59.861Z,31.57
2023-02-15T01:46:34.068Z,33.33
2023-02-15T01:49:08.980Z,32.07
2023-02-15T01:51:40.330Z,33.17
2023-02-15T01:54:13.959Z,33.87
2023-02-15T01:56:43.087Z,33.57
2023-02-15T01:59:19.053Z,32.63
2023-02-15T02:01:47.949Z,31.23
2023-02-15T02:04:24.751Z,31.73
2023-02-15T02:06:53.505Z,33.33
2023-02-15T02:09:22.036Z,32.73
2023-02-15T02:11:50.561Z,31.50
2023-02-15T02:14:20.678Z,31.50
2023-02-15T02:16:55.893Z,32.40
2023-02-15T02:19:56.644Z,30.17
2023-02-15T02:22:57.100Z,29.73
2023-02-15T02:25:40.347Z,29.07
2023-02-15T02:28:25.260Z,28.87
2023-02-15T02:31:20.366Z,28.13
2023-02-15T02:34:00.265Z,28.00
2023-02-15T02:36:37.697Z,28.37
2023-02-15T02:39:20.689Z,28.50
2023-02-15T02:41:58.206Z,29.30
2023-02-15T02:44:31.107Z,28.80
2023-02-15T02:47:06.362Z,27.93
2023-02-15T02:49:37.452Z,28.97
2023-02-15T02:52:08.241Z,29.57
2023-02-15T02:54:37.806Z,28.30
2023-02-15T02:57:10.310Z,26.73
2023-02-15T02:59:43.940Z,28.63
2023-02-15T03:02:18.648Z,27.20
2023-02-15T03:04:58.842Z,27.03
2023-02-15T03:07:30.640Z,28.43
2023-02-15T03:10:02.157Z,26.97
2023-02-15T03:12:33.978Z,27.67
2023-02-15T03:15:09.136Z,27.80
2023-02-15T03:17:42.939Z,27.30
2023-02-15T03:20:17.755Z,26.70
2023-02-15T03:22:51.008Z,27.50
2023-02-15T03:25:24.806Z,27.47
2023-02-15T03:27:57.526Z,26.47
2023-02-15T03:30:28.627Z,27.67
2023-02-15T03:32:59.892Z,25.57
2023-02-15T03:35:35.594Z,28.03
2023-02-15T03:38:08.115Z,26.27
2023-02-15T03:40:57.297Z,25.90
2023-02-15T03:43:32.598Z,27.00
2023-02-15T03:46:08.870Z,28.27
2023-02-15T03:48:41.508Z,27.03
2023-02-15T03:51:32.080Z,26.73
2023-02-15T03:54:01.417Z,25.37
2023-02-15T03:56:29.136Z,26.30
2023-02-15T03:59:14.659Z,26.43
2023-02-15T04:02:01.505Z,24.77
2023-02-15T04:04:34.762Z,27.87
2023-02-15T04:07:05.582Z,25.10
2023-02-15T04:09:50.939Z,26.57
2023-02-15T04:12:18.854Z,26.47
2023-02-15T04:15:04.199Z,27.80
2023-02-15T04:17:32.041Z,27.23
2023-02-15T04:20:17.289Z,27.93
2023-02-15T04:23:04.287Z,27.13
2023-02-15T04:25:31.956Z,28.57
2023-02-15T04:27:59.722Z,28.80
2023-02-15T04:30:28.996Z,27.37
2023-02-15T04:32:58.158Z,27.43
2023-02-15T04:35:26.853Z,28.63
2023-02-15T04:37:56.713Z,27.67
2023-02-15T04:40:24.558Z,27.80
2023-02-15T04:42:52.426Z,28.83
2023-02-15T04:45:20.677Z,28.07
2023-02-15T04:47:48.462Z,29.93
2023-02-15T04:50:16.700Z,29.57
2023-02-15T04:52:44.462Z,27.40
2023-02-15T04:55:13.625Z,28.23
2023-02-15T04:57:41.490Z,28.77
2023-02-15T05:00:10.830Z,28.50
2023-02-15T05:02:38.677Z,27.90
2023-02-15T05:05:07.075Z,28.37
2023-02-15T05:07:34.708Z,28.57
2023-02-15T05:10:02.461Z,27.57
2023-02-15T05:12:31.736Z,28.17
2023-02-15T05:14:59.549Z,28.13
2023-02-15T05:17:27.508Z,28.57
2023-02-15T05:19:55.366Z,26.37
2023-02-15T05:22:23.152Z,25.80
2023-02-15T05:25:08.324Z,25.83
2023-02-15T05:27:54.614Z,25.00
2023-02-15T05:30:22.615Z,24.90
2023-02-15T05:32:50.399Z,24.10
2023-02-15T05:35:20.009Z,23.70
2023-02-15T05:37:47.965Z,24.27
2023-02-15T05:40:16.205Z,22.53
2023-02-15T05:42:45.249Z,23.70
2023-02-15T05:45:13.006Z,24.23
2023-02-15T05:47:40.800Z,24.80
2023-02-15T05:50:09.550Z,24.63
2023-02-15T05:52:37.295Z,25.47
2023-02-15T05:55:05.388Z,26.60
2023-02-15T05:57:33.335Z,27.23
2023-02-15T06:00:05.210Z,27.07
2023-02-15T06:02:39.775Z,27.60
2023-02-15T06:05:08.508Z,27.70
2023-02-15T06:07:36.364Z,27.17
2023-02-15T06:10:04.869Z,26.70
2023-02-15T06:12:33.011Z,29.07
2023-02-15T06:15:02.131Z,27.60
2023-02-15T06:17:29.994Z,27.77
2023-02-15T06:19:57.894Z,28.80
2023-02-15T06:22:25.782Z,28.90
2023-02-15T06:24:53.566Z,29.63
2023-02-15T06:27:21.368Z,27.50
2023-02-15T06:29:48.968Z,28.77
2023-02-15T06:32:18.525Z,28.17
2023-02-15T06:34:48.040Z,28.17
2023-02-15T06:37:16.785Z,25.33
2023-02-15T06:39:45.283Z,27.60
2023-02-15T06:42:13.289Z,27.50
2023-02-15T06:44:41.051Z,28.33
2023-02-15T06:47:09.153Z,28.10
2023-02-15T06:49:38.395Z,27.40
2023-02-15T06:52:07.048Z,28.23
2023-02-15T06:54:34.945Z,26.93
2023-02-15T06:57:02.736Z,27.10
2023-02-15T06:59:30.514Z,26.40
2023-02-15T07:01:58.326Z,26.17
2023-02-15T07:04:26.088Z,26.13
2023-02-15T07:06:55.183Z,26.23
2023-02-15T07:09:22.923Z,26.83
2023-02-15T07:12:07.980Z,27.53
2023-02-15T07:14:35.792Z,27.00
2023-02-15T07:17:03.538Z,27.73
2023-02-15T07:19:31.413Z,27.97
2023-02-15T07:22:00.505Z,26.47
2023-02-15T07:24:28.619Z,27.37
2023-02-15T07:26:56.367Z,24.83
2023-02-15T07:29:24.110Z,28.77
2023-02-15T07:31:52.290Z,28.43
2023-02-15T07:34:20.054Z,27.17
2023-02-15T07:36:48.060Z,27.43
2023-02-15T07:39:17.617Z,28.70
2023-02-15T07:41:45.325Z,28.07
2023-02-15T07:44:15.006Z,29.00
2023-02-15T07:46:43.356Z,28.90
2023-02-15T07:49:11.072Z,30.47
2023-02-15T07:51:38.933Z,27.87
2023-02-15T07:54:06.713Z,27.90
2023-02-15T07:56:37.203Z,27.13
2023-02-15T07:59:06.001Z,29.73
2023-02-15T08:01:36.148Z,28.13
2023-02-15T08:04:05.297Z,28.10
2023-02-15T08:06:36.405Z,26.77
2023-02-15T08:09:06.286Z,26.53
2023-02-15T08:11:40.801Z,24.23
2023-02-15T08:14:10.250Z,23.13
2023-02-15T08:16:39.979Z,25.17
2023-02-15T08:19:10.494Z,24.00
2023-02-15T08:21:39.850Z,25.23
2023-02-15T08:24:09.365Z,25.43
2023-02-15T08:26:42.221Z,22.97
2023-02-15T08:29:11.129Z,23.97
2023-02-15T08:31:39.429Z,23.07
2023-02-15T08:34:07.705Z,23.00
2023-02-15T08:36:36.063Z,21.97
2023-02-15T08:39:07.738Z,22.77
2023-02-15T08:41:37.118Z,22.73
2023-02-15T08:44:08.079Z,22.17
2023-02-15T08:46:37.887Z,22.10
2023-02-15T08:49:06.133Z,22.13
2023-02-15T08:51:36.015Z,20.70
2023-02-15T08:54:06.404Z,19.87
2023-02-15T08:56:36.005Z,20.10
2023-02-15T08:59:06.627Z,20.67
2023-02-15T09:01:36.785Z,19.67
2023-02-15T09:04:07.311Z,20.07
2023-02-15T09:06:35.322Z,19.70
2023-02-15T09:09:04.541Z,20.27
2023-02-15T09:11:35.688Z,21.07
2023-02-15T09:14:05.521Z,21.10
2023-02-15T09:16:36.773Z,20.67
2023-02-15T09:19:06.571Z,20.13
2023-02-15T09:21:35.494Z,20.77
2023-02-15T09:24:05.559Z,21.57
2023-02-15T09:26:35.831Z,21.90
2023-02-15T09:29:04.535Z,21.30
2023-02-15T09:31:35.619Z,22.27
2023-02-15T09:34:03.482Z,23.43
2023-02-15T09:36:35.082Z,22.80
2023-02-15T09:39:08.578Z,22.23
2023-02-15T09:42:03.400Z,21.10
2023-02-15T09:44:43.920Z,21.83
2023-02-15T09:47:41.374Z,21.60
2023-02-15T09:50:19.364Z,23.13
2023-02-15T09:53:02.649Z,20.90
2023-02-15T09:55:41.180Z,22.33
2023-02-15T09:58:19.472Z,23.90
2023-02-15T10:00:58.988Z,22.67
2023-02-15T10:03:56.414Z,22.47
2023-02-15T10:06:34.836Z,22.07
2023-02-15T10:09:19.704Z,22.53
2023-02-15T10:12:03.532Z,22.50
2023-02-15T10:14:46.551Z,22.30
2023-02-15T10:17:31.191Z,22.47
2023-02-15T10:20:13.285Z,22.50
2023-02-15T10:22:55.048Z,21.73
2023-02-15T10:25:34.728Z,22.63
2023-02-15T10:28:07.648Z,21.70
2023-02-15T10:30:44.270Z,21.93
2023-02-15T10:33:25.529Z,22.07
2023-02-15T10:36:05.721Z,22.10
2023-02-15T10:38:39.262Z,21.13
2023-02-15T10:41:19.887Z,22.77
2023-02-15T10:44:04.703Z,22.53
2023-02-15T10:46:51.004Z,21.57
2023-02-15T10:49:35.640Z,21.60
2023-02-15T10:52:20.004Z,21.23
2023-02-15T10:54:56.569Z,21.17
2023-02-15T10:57:32.751Z,21.37
2023-02-15T11:00:10.340Z,21.80
2023-02-15T11:02:52.389Z,21.23
2023-02-15T11:05:37.287Z,20.23
2023-02-15T11:08:11.430Z,21.23
2023-02-15T11:10:43.479Z,21.10
2023-02-15T11:13:15.430Z,20.93
2023-02-15T11:15:48.449Z,19.60
2023-02-15T11:18:24.796Z,22.63
2023-02-15T11:20:57.661Z,22.13
2023-02-15T11:23:28.284Z,22.23
2023-02-15T11:25:59.748Z,22.67
2023-02-15T11:28:33.199Z,22.10
2023-02-15T11:31:12.832Z,23.47
2023-02-15T11:33:46.664Z,22.90
2023-02-15T11:36:20.354Z,24.17
2023-02-15T11:38:54.519Z,23.57
2023-02-15T11:41:26.882Z,23.43
2023-02-15T11:44:00.270Z,24.47
2023-02-15T11:46:28.049Z,21.70
2023-02-15T11:48:56.107Z,23.57
2023-02-15T11:51:25.009Z,23.00
2023-02-15T11:53:54.856Z,24.13
2023-02-15T11:56:24.849Z,23.90
2023-02-15T11:58:56.381Z,22.07
2023-02-15T12:01:31.951Z,24.00
2023-02-15T12:04:05.127Z,22.87
2023-02-15T12:06:36.300Z,24.23
2023-02-15T12:09:15.196Z,23.83
2023-02-15T12:11:43.913Z,24.03
2023-02-15T12:14:16.715Z,24.87
2023-02-15T12:16:47.105Z,24.77
2023-02-15T12:19:32.190Z,23.05
2023-02-15T12:22:01.701Z,23.97
2023-02-15T12:24:32.600Z,24.87
2023-02-15T12:27:04.611Z,24.67
2023-02-15T12:29:41.129Z,26.57
2023-02-15T12:32:19.374Z,26.77
2023-02-15T12:34:48.561Z,26.67
2023-02-15T12:37:23.481Z,27.10
2023-02-15T12:39:57.906Z,26.43
2023-02-15T12:42:27.495Z,27.90
2023-02-15T12:44:58.351Z,26.27
2023-02-15T12:47:30.702Z,27.53
2023-02-15T12:50:17.783Z,25.60
2023-02-15T12:52:49.364Z,29.93
2023-02-15T12:55:25.167Z,31.67
2023-02-15T12:58:08.470Z,32.07
2023-02-15T13:00:36.549Z,34.10
2023-02-15T13:03:04.817Z,33.17
2023-02-15T13:05:36.196Z,33.93
2023-02-15T13:08:10.957Z,33.17
2023-02-15T13:10:43.787Z,33.93
2023-02-15T13:13:13.615Z,35.07
2023-02-15T13:15:46.128Z,35.93
2023-02-15T13:18:18.903Z,36.80
2023-02-15T13:20:48.167Z,34.77
2023-02-15T13:23:28.315Z,36.37
2023-02-15T13:26:00.186Z,36.77
2023-02-15T13:28:42.608Z,35.83
2023-02-15T13:31:16.613Z,35.90
2023-02-15T13:33:48.672Z,36.37
2023-02-15T13:36:23.906Z,34.85
2023-02-15T13:38:59.980Z,37.08
2023-02-15T13:41:36.653Z,36.37
2023-02-15T13:44:16.785Z,39.30
2023-02-15T13:46:58.884Z,35.73
2023-02-15T13:49:41.713Z,38.30
2023-02-15T13:52:22.096Z,39.53
2023-02-15T13:55:23.358Z,38.25
2023-02-15T13:58:09.035Z,39.95
2023-02-15T14:00:47.829Z,39.30
2023-02-15T14:03:49.813Z,39.20
2023-02-15T14:06:35.269Z,38.03
2023-02-15T14:09:15.897Z,41.93
2023-02-15T14:11:53.833Z,40.72
2023-02-15T14:14:48.236Z,41.97
2023-02-15T14:17:25.221Z,40.92
2023-02-15T14:19:59.542Z,42.53
2023-02-15T14:22:33.688Z,42.15
2023-02-15T14:25:19.802Z,40.63
2023-02-15T14:27:58.247Z,42.22
2023-02-15T14:30:32.776Z,42.30
2023-02-15T14:33:07.731Z,42.67
2023-02-15T14:35:36.537Z,43.67
2023-02-15T14:38:13.379Z,43.77
2023-02-15T14:41:04.112Z,44.10
2023-02-15T14:43:54.202Z,42.87
2023-02-15T14:46:32.480Z,42.72
2023-02-15T14:49:08.741Z,47.73
2023-02-15T14:52:00.055Z,48.83
2023-02-15T14:54:59.725Z,47.27
2023-02-15T14:57:34.727Z,46.43
2023-02-15T15:00:25.774Z,47.77
2023-02-15T15:02:55.478Z,43.57
2023-02-15T15:05:31.761Z,44.30
2023-02-15T15:08:01.927Z,45.40
2023-02-15T15:10:45.179Z,44.55
2023-02-15T15:13:39.992Z,44.87
2023-02-15T15:16:30.022Z,46.07
2023-02-15T15:19:00.845Z,45.73
2023-02-15T15:21:55.300Z,46.58
2023-02-15T15:24:49.120Z,49.03
2023-02-15T15:27:55.246Z,47.37
2023-02-15T15:30:52.857Z,47.83
2023-02-15T15:34:01.199Z,44.27
2023-02-15T15:37:10.580Z,46.03
2023-02-15T15:40:13.964Z,44.83
2023-02-15T15:42:52.336Z,44.93
2023-02-15T15:45:46.550Z,45.07
2023-02-15T15:48:35.895Z,46.90
2023-02-15T15:51:08.795Z,47.80
2023-02-15T15:53:43.241Z,48.67
2023-02-15T15:56:17.325Z,47.97
2023-02-15T15:58:50.843Z,47.67
2023-02-15T16:01:18.937Z,51.90
2023-02-15T16:03:56.246Z,47.03
2023-02-15T16:06:33.784Z,48.30
2023-02-15T16:09:20.536Z,48.17
2023-02-15T16:11:52.345Z,46.97
2023-02-15T16:14:28.634Z,46.40
2023-02-15T16:16:59.324Z,46.67
2023-02-15T16:19:31.602Z,46.40
2023-02-15T16:22:02.573Z,47.63
2023-02-15T16:24:45.187Z,48.50
2023-02-15T16:27:35.459Z,50.97
2023-02-15T16:30:25.184Z,49.60
2023-02-15T16:32:57.594Z,49.57
2023-02-15T16:35:25.949Z,48.27
2023-02-15T16:37:53.927Z,49.20
2023-02-15T16:40:55.153Z,48.67
2023-02-15T16:43:28.522Z,47.40
2023-02-15T16:46:05.512Z,48.20
2023-02-15T16:48:34.989Z,47.50
2023-02-15T16:51:03.911Z,49.10
2023-02-15T16:53:32.163Z,50.10
2023-02-15T16:56:04.234Z,50.70
2023-02-15T16:58:39.881Z,50.37
2023-02-15T17:01:10.103Z,49.95
2023-02-15T17:03:37.968Z,50.30
2023-02-15T17:06:21.740Z,49.83
2023-02-15T17:08:49.702Z,46.80
2023-02-15T17:11:20.584Z,45.90
2023-02-15T17:14:15.267Z,44.70
2023-02-15T17:16:50.054Z,45.87
2023-02-15T17:19:22.891Z,47.90
2023-02-15T17:21:55.020Z,45.70
2023-02-15T17:24:31.105Z,45.53
2023-02-15T17:27:05.064Z,46.63
2023-02-15T17:29:39.248Z,46.97
2023-02-15T17:32:15.014Z,45.97
2023-02-15T17:34:50.040Z,42.50
2023-02-15T17:37:28.084Z,39.83
2023-02-15T17:39:56.785Z,42.13
2023-02-15T17:42:26.301Z,41.07
2023-02-15T17:44:54.099Z,42.30
2023-02-15T17:47:25.600Z,41.43
2023-02-15T17:49:54.702Z,40.25
2023-02-15T17:52:23.013Z,41.23
2023-02-15T17:55:08.336Z,41.37
2023-02-15T17:57:38.675Z,42.47
2023-02-15T18:00:25.338Z,41.50
2023-02-15T18:03:12.206Z,40.35
2023-02-15T18:05:57.798Z,39.10
2023-02-15T18:08:46.723Z,41.53
2023-02-15T18:11:32.432Z,40.97
2023-02-15T18:14:02.331Z,41.10
2023-02-15T18:16:33.403Z,39.73
2023-02-15T18:19:01.719Z,40.93
2023-02-15T18:21:30.057Z,39.90
2023-02-15T18:23:57.910Z,40.67
2023-02-15T18:26:27.288Z,42.17
2023-02-15T18:28:55.153Z,41.80
2023-02-15T18:31:25.371Z,42.03
2023-02-15T18:33:55.856Z,40.40
2023-02-15T18:36:28.459Z,43.13
2023-02-15T18:38:56.677Z,42.27
2023-02-15T18:41:25.460Z,41.17
2023-02-15T18:43:53.998Z,42.37
2023-02-15T18:46:22.013Z,42.90
2023-02-15T18:48:51.834Z,42.03
2023-02-15T18:51:21.353Z,43.40
2023-02-15T18:53:51.576Z,42.10
2023-02-15T18:56:21.101Z,39.60
2023-02-15T18:58:49.274Z,40.60
2023-02-15T19:01:20.049Z,40.00
2023-02-15T19:03:49.252Z,39.80
2023-02-15T19:06:21.061Z,40.77
2023-02-15T19:08:52.144Z,40.43
2023-02-15T19:11:24.463Z,41.10
2023-02-15T19:13:54.379Z,41.13
2023-02-15T19:16:31.452Z,40.93
2023-02-15T19:19:00.880Z,40.75
2023-02-15T19:21:33.486Z,40.92
2023-02-15T19:24:05.385Z,41.93
2023-02-15T19:26:45.935Z,43.90
2023-02-15T19:29:15.978Z,40.42
2023-02-15T19:31:44.053Z,45.70
2023-02-15T19:34:16.665Z,47.20
2023-02-15T19:36:48.757Z,39.87
2023-02-15T19:39:29.282Z,41.33
2023-02-15T19:41:57.840Z,42.80
2023-02-15T19:44:26.284Z,42.80
2023-02-15T19:46:54.202Z,41.07
2023-02-15T19:49:22.696Z,41.57
2023-02-15T19:51:52.517Z,41.80
2023-02-15T19:54:29.292Z,41.17
2023-02-15T19:56:58.104Z,39.83
2023-02-15T19:59:28.826Z,40.77
2023-02-15T20:01:57.393Z,38.93
2023-02-15T20:04:27.210Z,37.85
2023-02-15T20:07:01.153Z,39.20
2023-02-15T20:09:32.142Z,36.97
2023-02-15T20:12:00.009Z,38.33
2023-02-15T20:14:28.630Z,38.67
2023-02-15T20:16:57.525Z,38.57
2023-02-15T20:19:25.879Z,40.67
2023-02-15T20:21:55.134Z,39.10
2023-02-15T20:24:29.787Z,37.87
2023-02-15T20:26:57.991Z,39.20
2023-02-15T20:29:27.215Z,39.53
2023-02-15T20:31:55.715Z,41.13
2023-02-15T20:34:24.227Z,40.73
2023-02-15T20:36:53.200Z,41.00
2023-02-15T20:39:21.544Z,40.60
2023-02-15T20:41:51.092Z,39.73
2023-02-15T20:44:26.069Z,39.57
2023-02-15T20:46:56.886Z,40.57
2023-02-15T20:49:26.352Z,45.43
2023-02-15T20:51:56.128Z,39.93
2023-02-15T20:54:27.011Z,37.53
2023-02-15T20:56:56.476Z,38.10
2023-02-15T20:59:26.950Z,38.80
2023-02-15T21:01:59.485Z,36.63
2023-02-15T21:04:31.704Z,37.13
2023-02-15T21:06:59.860Z,35.17
2023-02-15T21:09:28.314Z,37.70
2023-02-15T21:11:59.568Z,36.42
2023-02-15T21:14:29.419Z,35.30
2023-02-15T21:16:57.956Z,37.63
2023-02-15T21:19:27.109Z,37.90
2023-02-15T21:21:55.286Z,40.37
2023-02-15T21:24:26.995Z,40.20
2023-02-15T21:26:58.483Z,36.63
2023-02-15T21:29:28.628Z,39.03
2023-02-15T21:31:58.224Z,40.17
2023-02-15T21:34:27.417Z,37.90
2023-02-15T21:36:55.721Z,38.60
2023-02-15T21:39:26.744Z,37.63
2023-02-15T21:42:14.789Z,42.00
2023-02-15T21:45:00.568Z,40.40
2023-02-15T21:47:48.404Z,38.80
2023-02-15T21:50:41.747Z,38.70
2023-02-15T21:53:13.204Z,38.70
2023-02-15T21:55:41.238Z,39.73
2023-02-15T21:58:25.394Z,38.90
2023-02-15T22:00:55.980Z,38.40
2023-02-15T22:03:25.038Z,40.73
2023-02-15T22:05:53.508Z,39.63
2023-02-15T22:08:21.397Z,39.73
2023-02-15T22:10:49.693Z,40.77
2023-02-15T22:13:28.092Z,41.50
2023-02-15T22:15:57.070Z,39.80
2023-02-15T22:18:27.711Z,38.43
2023-02-15T22:20:56.239Z,38.47
2023-02-15T22:23:25.185Z,38.70
2023-02-15T22:25:58.006Z,38.13
2023-02-15T22:28:32.117Z,37.07
2023-02-15T22:31:00.746Z,38.20
2023-02-15T22:33:30.796Z,37.87
2023-02-15T22:35:59.474Z,38.03
2023-02-15T22:38:27.425Z,36.57
2023-02-15T22:40:58.177Z,38.27
2023-02-15T22:43:36.468Z,36.13
2023-02-15T22:46:07.342Z,37.27
2023-02-15T22:48:35.738Z,35.57
2023-02-15T22:51:03.987Z,35.93
2023-02-15T22:53:31.882Z,33.60
2023-02-15T22:56:09.850Z,35.57
2023-02-15T22:58:38.906Z,36.43
2023-02-15T23:01:06.644Z,38.60
2023-02-15T23:03:34.769Z,38.70
2023-02-15T23:06:02.628Z,38.13
2023-02-15T23:08:30.325Z,38.47
2023-02-15T23:10:58.692Z,39.30
2023-02-15T23:13:30.557Z,38.80
2023-02-15T23:16:01.661Z,36.90
2023-02-15T23:18:32.564Z,35.87
2023-02-15T23:21:03.697Z,36.20
2023-02-15T23:23:34.184Z,37.77
2023-02-15T23:26:04.513Z,37.27
2023-02-15T23:28:35.953Z,39.03
2023-02-15T23:31:16.157Z,35.80
2023-02-15T23:33:44.486Z,36.50
2023-02-15T23:36:25.747Z,36.07
2023-02-15T23:38:54.112Z,37.27
2023-02-15T23:41:25.913Z,38.17
2023-02-15T23:43:56.335Z,37.77
2023-02-15T23:46:30.134Z,36.63
2023-02-15T23:48:58.370Z,38.47
2023-02-15T23:51:31.445Z,38.57
2023-02-15T23:53:59.310Z,35.47
2023-02-15T23:56:27.233Z,36.70
2023-02-15T23:58:55.163Z,35.10
